sensor_id;sensor_type;location;lat;lon;timestamp;pressure;altitude;pressure_sealevel;temperature;humidity
82375;BME280;72005;50.496;15.798;2024-03-06T00:02:08;95738.78;;;4.19;99.28
82375;BME280;72005;50.496;15.798;2024-03-06T00:04:34;95738.00;;;4.19;98.92
82375;BME280;72005;50.496;15.798;2024-03-06T00:07:00;95734.78;;;4.17;99.04
82375;BME280;72005;50.496;15.798;2024-03-06T00:09:26;95748.06;;;4.09;98.83
82375;BME280;72005;50.496;15.798;2024-03-06T00:11:53;95739.25;;;4.10;98.56
82375;BME280;72005;50.496;15.798;2024-03-06T00:14:19;95742.28;;;4.06;98.94
82375;BME280;72005;50.496;15.798;2024-03-06T00:16:45;95741.72;;;3.98;98.87
82375;BME280;72005;50.496;15.798;2024-03-06T00:19:11;95736.31;;;3.99;99.11
82375;BME280;72005;50.496;15.798;2024-03-06T00:21:36;95745.31;;;3.97;98.96
82375;BME280;72005;50.496;15.798;2024-03-06T00:24:03;95742.53;;;3.98;99.08
82375;BME280;72005;50.496;15.798;2024-03-06T00:26:29;95751.91;;;3.99;99.31
82375;BME280;72005;50.496;15.798;2024-03-06T00:28:55;95764.09;;;3.99;99.13
82375;BME280;72005;50.496;15.798;2024-03-06T00:31:20;95752.31;;;3.96;99.20
82375;BME280;72005;50.496;15.798;2024-03-06T00:33:46;95756.19;;;3.87;99.39
82375;BME280;72005;50.496;15.798;2024-03-06T00:36:12;95764.16;;;3.92;99.17
82375;BME280;72005;50.496;15.798;2024-03-06T00:38:37;95759.56;;;3.94;99.33
82375;BME280;72005;50.496;15.798;2024-03-06T00:41:03;95753.13;;;3.97;99.32
82375;BME280;72005;50.496;15.798;2024-03-06T00:43:29;95755.88;;;4.02;99.08
82375;BME280;72005;50.496;15.798;2024-03-06T00:45:55;95761.31;;;4.00;99.28
82375;BME280;72005;50.496;15.798;2024-03-06T00:48:21;95757.69;;;4.01;99.25
82375;BME280;72005;50.496;15.798;2024-03-06T00:50:47;95757.09;;;3.99;99.15
82375;BME280;72005;50.496;15.798;2024-03-06T00:53:12;95756.69;;;4.02;99.13
82375;BME280;72005;50.496;15.798;2024-03-06T00:55:38;95758.84;;;4.05;99.00
82375;BME280;72005;50.496;15.798;2024-03-06T00:58:05;95761.69;;;4.04;99.31
82375;BME280;72005;50.496;15.798;2024-03-06T01:00:32;95758.47;;;4.09;98.93
82375;BME280;72005;50.496;15.798;2024-03-06T01:02:58;95763.66;;;4.09;98.80
82375;BME280;72005;50.496;15.798;2024-03-06T01:05:23;95762.41;;;4.18;98.31
82375;BME280;72005;50.496;15.798;2024-03-06T01:07:49;95768.88;;;4.09;98.57
82375;BME280;72005;50.496;15.798;2024-03-06T01:10:15;95763.69;;;4.02;98.49
82375;BME280;72005;50.496;15.798;2024-03-06T01:12:41;95766.88;;;4.04;98.68
82375;BME280;72005;50.496;15.798;2024-03-06T01:15:11;95757.31;;;3.98;98.66
82375;BME280;72005;50.496;15.798;2024-03-06T01:17:37;95760.72;;;3.98;99.14
82375;BME280;72005;50.496;15.798;2024-03-06T01:20:03;95760.50;;;4.00;98.84
82375;BME280;72005;50.496;15.798;2024-03-06T01:22:33;95756.13;;;4.00;99.16
82375;BME280;72005;50.496;15.798;2024-03-06T01:24:59;95760.13;;;3.96;99.29
82375;BME280;72005;50.496;15.798;2024-03-06T01:27:26;95761.78;;;3.84;99.32
82375;BME280;72005;50.496;15.798;2024-03-06T01:29:52;95759.63;;;3.81;99.55
82375;BME280;72005;50.496;15.798;2024-03-06T01:32:18;95757.44;;;3.78;99.85
82375;BME280;72005;50.496;15.798;2024-03-06T01:34:43;95763.63;;;3.77;99.95
82375;BME280;72005;50.496;15.798;2024-03-06T01:37:09;95771.41;;;3.77;99.79
82375;BME280;72005;50.496;15.798;2024-03-06T01:39:34;95775.03;;;3.76;99.69
82375;BME280;72005;50.496;15.798;2024-03-06T01:42:01;95769.78;;;3.82;99.65
82375;BME280;72005;50.496;15.798;2024-03-06T01:44:27;95774.19;;;3.82;99.58
82375;BME280;72005;50.496;15.798;2024-03-06T01:46:53;95779.97;;;3.84;99.54
82375;BME280;72005;50.496;15.798;2024-03-06T01:49:22;95787.34;;;3.87;99.52
82375;BME280;72005;50.496;15.798;2024-03-06T01:51:51;95779.56;;;3.87;99.33
82375;BME280;72005;50.496;15.798;2024-03-06T01:54:18;95778.16;;;3.84;99.40
82375;BME280;72005;50.496;15.798;2024-03-06T01:56:47;95776.97;;;3.87;99.60
82375;BME280;72005;50.496;15.798;2024-03-06T01:59:15;95779.75;;;3.92;99.21
82375;BME280;72005;50.496;15.798;2024-03-06T02:01:42;95782.34;;;3.92;99.04
82375;BME280;72005;50.496;15.798;2024-03-06T02:04:08;95784.28;;;3.97;99.22
82375;BME280;72005;50.496;15.798;2024-03-06T02:06:41;95783.69;;;4.01;98.87
82375;BME280;72005;50.496;15.798;2024-03-06T02:09:07;95785.25;;;4.02;98.88
82375;BME280;72005;50.496;15.798;2024-03-06T02:11:35;95784.53;;;3.95;98.57
82375;BME280;72005;50.496;15.798;2024-03-06T02:14:01;95779.16;;;3.90;98.73
82375;BME280;72005;50.496;15.798;2024-03-06T02:16:28;95781.78;;;3.77;98.71
82375;BME280;72005;50.496;15.798;2024-03-06T02:18:54;95774.22;;;3.75;99.04
82375;BME280;72005;50.496;15.798;2024-03-06T02:21:21;95782.63;;;3.71;99.58
82375;BME280;72005;50.496;15.798;2024-03-06T02:23:47;95784.81;;;3.74;99.34
82375;BME280;72005;50.496;15.798;2024-03-06T02:26:13;95784.63;;;3.75;99.15
82375;BME280;72005;50.496;15.798;2024-03-06T02:28:38;95785.41;;;3.76;99.21
82375;BME280;72005;50.496;15.798;2024-03-06T02:31:04;95786.59;;;3.80;99.27
82375;BME280;72005;50.496;15.798;2024-03-06T02:33:32;95787.19;;;3.82;98.92
82375;BME280;72005;50.496;15.798;2024-03-06T02:35:59;95795.38;;;3.86;98.84
82375;BME280;72005;50.496;15.798;2024-03-06T02:38:25;95785.34;;;3.89;98.81
82375;BME280;72005;50.496;15.798;2024-03-06T02:40:51;95786.94;;;3.90;98.75
82375;BME280;72005;50.496;15.798;2024-03-06T02:43:16;95781.75;;;3.90;98.86
82375;BME280;72005;50.496;15.798;2024-03-06T02:45:42;95788.53;;;3.91;98.90
82375;BME280;72005;50.496;15.798;2024-03-06T02:48:08;95798.72;;;3.93;98.77
82375;BME280;72005;50.496;15.798;2024-03-06T02:50:33;95794.34;;;3.87;98.60
82375;BME280;72005;50.496;15.798;2024-03-06T02:52:59;95800.34;;;3.87;98.69
82375;BME280;72005;50.496;15.798;2024-03-06T02:55:25;95800.16;;;3.89;98.42
82375;BME280;72005;50.496;15.798;2024-03-06T02:57:50;95797.31;;;3.90;98.31
82375;BME280;72005;50.496;15.798;2024-03-06T03:00:16;95797.94;;;3.92;98.23
82375;BME280;72005;50.496;15.798;2024-03-06T03:02:42;95792.31;;;3.95;98.61
82375;BME280;72005;50.496;15.798;2024-03-06T03:05:08;95794.28;;;4.00;98.79
82375;BME280;72005;50.496;15.798;2024-03-06T03:07:33;95798.84;;;4.04;98.59
82375;BME280;72005;50.496;15.798;2024-03-06T03:09:59;95799.22;;;4.08;98.48
82375;BME280;72005;50.496;15.798;2024-03-06T03:12:25;95792.81;;;4.11;98.43
82375;BME280;72005;50.496;15.798;2024-03-06T03:14:51;95791.84;;;4.05;98.33
82375;BME280;72005;50.496;15.798;2024-03-06T03:17:18;95794.88;;;4.02;97.79
82375;BME280;72005;50.496;15.798;2024-03-06T03:19:45;95788.88;;;4.01;97.95
82375;BME280;72005;50.496;15.798;2024-03-06T03:22:10;95792.50;;;4.00;97.95
82375;BME280;72005;50.496;15.798;2024-03-06T03:24:36;95789.28;;;3.98;97.93
82375;BME280;72005;50.496;15.798;2024-03-06T03:27:04;95785.31;;;3.96;97.74
82375;BME280;72005;50.496;15.798;2024-03-06T03:29:30;95801.78;;;3.83;97.35
82375;BME280;72005;50.496;15.798;2024-03-06T03:31:56;95805.19;;;3.77;96.83
82375;BME280;72005;50.496;15.798;2024-03-06T03:34:23;95802.19;;;3.73;97.14
82375;BME280;72005;50.496;15.798;2024-03-06T03:36:48;95807.19;;;3.75;97.40
82375;BME280;72005;50.496;15.798;2024-03-06T03:39:14;95800.53;;;3.41;97.61
82375;BME280;72005;50.496;15.798;2024-03-06T03:41:46;95805.56;;;3.15;98.93
82375;BME280;72005;50.496;15.798;2024-03-06T03:44:13;95803.41;;;2.92;100.00
82375;BME280;72005;50.496;15.798;2024-03-06T03:46:39;95807.63;;;2.67;100.00
82375;BME280;72005;50.496;15.798;2024-03-06T03:49:05;95818.19;;;2.52;100.00
82375;BME280;72005;50.496;15.798;2024-03-06T03:51:30;95808.41;;;2.41;100.00
82375;BME280;72005;50.496;15.798;2024-03-06T03:53:56;95813.81;;;2.39;100.00
82375;BME280;72005;50.496;15.798;2024-03-06T03:56:21;95822.72;;;2.23;100.00
82375;BME280;72005;50.496;15.798;2024-03-06T03:58:47;95825.31;;;2.23;100.00
82375;BME280;72005;50.496;15.798;2024-03-06T04:01:13;95822.72;;;2.10;100.00
82375;BME280;72005;50.496;15.798;2024-03-06T04:03:39;95823.88;;;2.01;100.00
82375;BME280;72005;50.496;15.798;2024-03-06T04:06:08;95827.47;;;2.00;100.00
82375;BME280;72005;50.496;15.798;2024-03-06T04:08:34;95835.03;;;1.95;100.00
82375;BME280;72005;50.496;15.798;2024-03-06T04:10:59;95832.19;;;1.90;100.00
82375;BME280;72005;50.496;15.798;2024-03-06T04:13:25;95836.56;;;1.83;100.00
82375;BME280;72005;50.496;15.798;2024-03-06T04:15:51;95838.56;;;1.80;100.00
82375;BME280;72005;50.496;15.798;2024-03-06T04:18:17;95837.34;;;1.76;100.00
82375;BME280;72005;50.496;15.798;2024-03-06T04:20:42;95832.94;;;1.70;100.00
82375;BME280;72005;50.496;15.798;2024-03-06T04:23:08;95829.75;;;1.68;100.00
82375;BME280;72005;50.496;15.798;2024-03-06T04:25:34;95835.31;;;1.65;100.00
82375;BME280;72005;50.496;15.798;2024-03-06T04:27:59;95837.28;;;1.63;100.00
82375;BME280;72005;50.496;15.798;2024-03-06T04:30:26;95838.47;;;1.61;100.00
82375;BME280;72005;50.496;15.798;2024-03-06T04:32:52;95835.69;;;1.62;100.00
82375;BME280;72005;50.496;15.798;2024-03-06T04:35:17;95840.88;;;1.62;100.00
82375;BME280;72005;50.496;15.798;2024-03-06T04:37:43;95836.09;;;1.59;100.00
82375;BME280;72005;50.496;15.798;2024-03-06T04:40:09;95842.47;;;1.63;100.00
82375;BME280;72005;50.496;15.798;2024-03-06T04:42:35;95844.44;;;1.61;100.00
82375;BME280;72005;50.496;15.798;2024-03-06T04:45:11;95849.22;;;1.57;100.00
82375;BME280;72005;50.496;15.798;2024-03-06T04:47:38;95848.41;;;1.57;100.00
82375;BME280;72005;50.496;15.798;2024-03-06T04:50:08;95848.19;;;1.52;100.00
82375;BME280;72005;50.496;15.798;2024-03-06T04:52:35;95859.94;;;1.54;100.00
82375;BME280;72005;50.496;15.798;2024-03-06T04:55:00;95853.56;;;1.50;100.00
82375;BME280;72005;50.496;15.798;2024-03-06T04:57:26;95853.19;;;1.53;100.00
82375;BME280;72005;50.496;15.798;2024-03-06T04:59:53;95855.56;;;1.55;100.00
82375;BME280;72005;50.496;15.798;2024-03-06T05:02:19;95860.34;;;1.58;100.00
82375;BME280;72005;50.496;15.798;2024-03-06T05:04:44;95863.94;;;1.57;100.00
82375;BME280;72005;50.496;15.798;2024-03-06T05:07:10;95859.97;;;1.61;100.00
82375;BME280;72005;50.496;15.798;2024-03-06T05:09:35;95863.00;;;1.65;100.00
82375;BME280;72005;50.496;15.798;2024-03-06T05:12:01;95865.75;;;1.63;100.00
82375;BME280;72005;50.496;15.798;2024-03-06T05:14:26;95863.97;;;1.64;100.00
82375;BME280;72005;50.496;15.798;2024-03-06T05:16:52;95871.16;;;1.62;100.00
82375;BME280;72005;50.496;15.798;2024-03-06T05:19:18;95871.94;;;1.62;100.00
82375;BME280;72005;50.496;15.798;2024-03-06T05:21:44;95877.91;;;1.63;100.00
82375;BME280;72005;50.496;15.798;2024-03-06T05:24:09;95880.50;;;1.63;100.00
82375;BME280;72005;50.496;15.798;2024-03-06T05:26:35;95873.91;;;1.60;100.00
82375;BME280;72005;50.496;15.798;2024-03-06T05:29:00;95884.69;;;1.64;100.00
82375;BME280;72005;50.496;15.798;2024-03-06T05:31:26;95880.31;;;1.64;100.00
82375;BME280;72005;50.496;15.798;2024-03-06T05:33:52;95881.53;;;1.68;100.00
82375;BME280;72005;50.496;15.798;2024-03-06T05:36:18;95894.69;;;1.73;100.00
82375;BME280;72005;50.496;15.798;2024-03-06T05:38:44;95892.28;;;1.72;100.00
82375;BME280;72005;50.496;15.798;2024-03-06T05:41:10;95889.53;;;1.73;100.00
82375;BME280;72005;50.496;15.798;2024-03-06T05:43:36;95892.13;;;1.80;100.00
82375;BME280;72005;50.496;15.798;2024-03-06T05:46:02;95896.75;;;1.85;100.00
82375;BME280;72005;50.496;15.798;2024-03-06T05:48:28;95900.75;;;1.87;100.00
82375;BME280;72005;50.496;15.798;2024-03-06T05:50:53;95897.16;;;1.88;100.00
82375;BME280;72005;50.496;15.798;2024-03-06T05:53:19;95907.16;;;1.98;100.00
82375;BME280;72005;50.496;15.798;2024-03-06T05:55:45;95905.19;;;2.00;100.00
82375;BME280;72005;50.496;15.798;2024-03-06T05:58:11;95902.19;;;2.03;100.00
82375;BME280;72005;50.496;15.798;2024-03-06T06:00:37;95900.22;;;2.05;100.00
82375;BME280;72005;50.496;15.798;2024-03-06T06:03:03;95908.22;;;2.10;100.00
82375;BME280;72005;50.496;15.798;2024-03-06T06:05:29;95908.81;;;2.12;100.00
82375;BME280;72005;50.496;15.798;2024-03-06T06:07:55;95909.63;;;2.19;100.00
82375;BME280;72005;50.496;15.798;2024-03-06T06:10:20;95915.63;;;2.26;100.00
82375;BME280;72005;50.496;15.798;2024-03-06T06:12:46;95916.25;;;2.29;100.00
82375;BME280;72005;50.496;15.798;2024-03-06T06:15:12;95917.81;;;2.30;100.00
82375;BME280;72005;50.496;15.798;2024-03-06T06:17:37;95925.81;;;2.35;100.00
82375;BME280;72005;50.496;15.798;2024-03-06T06:20:07;95927.63;;;2.41;100.00
82375;BME280;72005;50.496;15.798;2024-03-06T06:22:36;95925.03;;;2.41;100.00
82375;BME280;72005;50.496;15.798;2024-03-06T06:25:02;95932.25;;;2.52;100.00
82375;BME280;72005;50.496;15.798;2024-03-06T06:27:28;95929.66;;;2.52;100.00
82375;BME280;72005;50.496;15.798;2024-03-06T06:29:54;95930.50;;;2.59;100.00
82375;BME280;72005;50.496;15.798;2024-03-06T06:32:21;95939.06;;;2.60;100.00
82375;BME280;72005;50.496;15.798;2024-03-06T06:34:46;95925.31;;;2.72;100.00
82375;BME280;72005;50.496;15.798;2024-03-06T06:37:12;95924.94;;;2.82;100.00
82375;BME280;72005;50.496;15.798;2024-03-06T06:39:38;95929.13;;;2.90;100.00
82375;BME280;72005;50.496;15.798;2024-03-06T06:42:03;95930.75;;;2.98;100.00
82375;BME280;72005;50.496;15.798;2024-03-06T06:44:30;95931.75;;;3.03;100.00
82375;BME280;72005;50.496;15.798;2024-03-06T06:46:55;95932.53;;;3.10;100.00
82375;BME280;72005;50.496;15.798;2024-03-06T06:49:22;95929.16;;;3.16;100.00
82375;BME280;72005;50.496;15.798;2024-03-06T06:51:47;95934.13;;;3.25;100.00
82375;BME280;72005;50.496;15.798;2024-03-06T06:54:15;95928.16;;;3.37;100.00
82375;BME280;72005;50.496;15.798;2024-03-06T06:56:40;95928.94;;;3.38;100.00
82375;BME280;72005;50.496;15.798;2024-03-06T06:59:06;95928.94;;;3.51;100.00
82375;BME280;72005;50.496;15.798;2024-03-06T07:01:31;95929.13;;;3.63;100.00
82375;BME280;72005;50.496;15.798;2024-03-06T07:03:58;95922.88;;;3.84;100.00
82375;BME280;72005;50.496;15.798;2024-03-06T07:06:24;95926.59;;;4.53;100.00
82375;BME280;72005;50.496;15.798;2024-03-06T07:08:50;95929.81;;;5.12;98.02
82375;BME280;72005;50.496;15.798;2024-03-06T07:11:17;95932.66;;;5.79;96.21
82375;BME280;72005;50.496;15.798;2024-03-06T07:13:44;95936.16;;;6.28;93.72
82375;BME280;72005;50.496;15.798;2024-03-06T07:16:09;95928.63;;;6.68;90.85
82375;BME280;72005;50.496;15.798;2024-03-06T07:18:35;95929.28;;;6.94;88.34
82375;BME280;72005;50.496;15.798;2024-03-06T07:21:00;95923.09;;;7.42;88.17
82375;BME280;72005;50.496;15.798;2024-03-06T07:23:26;95923.28;;;7.99;87.38
82375;BME280;72005;50.496;15.798;2024-03-06T07:25:52;95919.94;;;8.39;86.25
82375;BME280;72005;50.496;15.798;2024-03-06T07:28:18;95930.59;;;8.49;82.86
82375;BME280;72005;50.496;15.798;2024-03-06T07:30:44;95927.75;;;8.79;82.80
82375;BME280;72005;50.496;15.798;2024-03-06T07:33:10;95929.47;;;9.19;81.67
82375;BME280;72005;50.496;15.798;2024-03-06T07:35:35;95937.59;;;9.18;80.16
82375;BME280;72005;50.496;15.798;2024-03-06T07:38:02;95933.69;;;9.37;78.44
82375;BME280;72005;50.496;15.798;2024-03-06T07:40:30;95933.34;;;9.84;80.05
82375;BME280;72005;50.496;15.798;2024-03-06T07:42:57;95939.47;;;9.73;76.82
82375;BME280;72005;50.496;15.798;2024-03-06T07:45:22;95935.13;;;10.01;77.42
82375;BME280;72005;50.496;15.798;2024-03-06T07:47:48;95942.06;;;10.51;78.43
82375;BME280;72005;50.496;15.798;2024-03-06T07:50:13;95943.28;;;10.92;75.66
82375;BME280;72005;50.496;15.798;2024-03-06T07:52:45;95941.28;;;11.04;74.33
82375;BME280;72005;50.496;15.798;2024-03-06T07:55:11;95948.13;;;10.78;72.83
82375;BME280;72005;50.496;15.798;2024-03-06T07:57:37;95951.63;;;10.84;72.93
82375;BME280;72005;50.496;15.798;2024-03-06T08:00:07;95947.63;;;10.54;73.11
82375;BME280;72005;50.496;15.798;2024-03-06T08:02:45;95944.59;;;10.02;74.87
82375;BME280;72005;50.496;15.798;2024-03-06T08:05:16;95953.88;;;9.54;74.83
82375;BME280;72005;50.496;15.798;2024-03-06T08:07:42;95958.78;;;9.16;76.34
82375;BME280;72005;50.496;15.798;2024-03-06T08:10:09;95960.81;;;9.14;77.09
82375;BME280;72005;50.496;15.798;2024-03-06T08:12:35;95961.63;;;9.15;78.08
82375;BME280;72005;50.496;15.798;2024-03-06T08:15:00;95960.50;;;9.11;76.92
82375;BME280;72005;50.496;15.798;2024-03-06T08:17:28;95959.75;;;9.27;77.22
82375;BME280;72005;50.496;15.798;2024-03-06T08:19:53;95961.47;;;9.04;76.23
82375;BME280;72005;50.496;15.798;2024-03-06T08:22:18;95967.44;;;8.88;76.73
82375;BME280;72005;50.496;15.798;2024-03-06T08:24:44;95968.38;;;8.82;76.78
82375;BME280;72005;50.496;15.798;2024-03-06T08:27:10;95971.13;;;8.47;76.57
82375;BME280;72005;50.496;15.798;2024-03-06T08:29:35;95968.19;;;8.43;77.22
82375;BME280;72005;50.496;15.798;2024-03-06T08:32:01;95968.25;;;8.36;77.32
82375;BME280;72005;50.496;15.798;2024-03-06T08:34:27;95972.59;;;8.31;77.81
82375;BME280;72005;50.496;15.798;2024-03-06T08:36:52;95973.06;;;8.28;77.91
82375;BME280;72005;50.496;15.798;2024-03-06T08:39:18;95973.56;;;8.01;77.71
82375;BME280;72005;50.496;15.798;2024-03-06T08:41:44;95977.75;;;8.26;77.67
82375;BME280;72005;50.496;15.798;2024-03-06T08:44:09;95975.72;;;8.04;77.33
82375;BME280;72005;50.496;15.798;2024-03-06T08:46:35;95976.38;;;8.00;77.37
82375;BME280;72005;50.496;15.798;2024-03-06T08:49:01;95972.91;;;7.94;77.95
82375;BME280;72005;50.496;15.798;2024-03-06T08:51:27;95975.16;;;7.79;78.98
82375;BME280;72005;50.496;15.798;2024-03-06T08:53:53;95980.63;;;7.65;77.01
82375;BME280;72005;50.496;15.798;2024-03-06T08:56:18;95976.53;;;7.69;77.67
82375;BME280;72005;50.496;15.798;2024-03-06T08:58:44;95977.75;;;7.55;78.08
82375;BME280;72005;50.496;15.798;2024-03-06T09:01:09;95980.38;;;7.79;79.70
82375;BME280;72005;50.496;15.798;2024-03-06T09:03:35;95987.69;;;7.88;77.46
82375;BME280;72005;50.496;15.798;2024-03-06T09:06:02;95981.16;;;7.91;77.45
82375;BME280;72005;50.496;15.798;2024-03-06T09:08:28;95985.28;;;7.99;78.15
82375;BME280;72005;50.496;15.798;2024-03-06T09:10:55;95988.09;;;8.21;77.83
82375;BME280;72005;50.496;15.798;2024-03-06T09:13:25;95984.09;;;8.30;76.26
82375;BME280;72005;50.496;15.798;2024-03-06T09:15:51;95985.03;;;8.24;75.91
82375;BME280;72005;50.496;15.798;2024-03-06T09:18:16;95978.44;;;8.09;75.98
82375;BME280;72005;50.496;15.798;2024-03-06T09:20:43;95982.53;;;8.05;75.73
82375;BME280;72005;50.496;15.798;2024-03-06T09:23:08;95991.41;;;7.93;75.40
82375;BME280;72005;50.496;15.798;2024-03-06T09:25:34;95989.03;;;7.91;76.40
82375;BME280;72005;50.496;15.798;2024-03-06T09:27:59;95991.75;;;7.96;75.42
82375;BME280;72005;50.496;15.798;2024-03-06T09:30:30;95993.91;;;7.87;74.97
82375;BME280;72005;50.496;15.798;2024-03-06T09:32:55;95989.94;;;7.85;75.36
82375;BME280;72005;50.496;15.798;2024-03-06T09:35:21;95992.91;;;8.12;74.66
82375;BME280;72005;50.496;15.798;2024-03-06T09:37:46;95987.09;;;8.10;74.41
82375;BME280;72005;50.496;15.798;2024-03-06T09:40:22;95994.25;;;8.26;75.13
82375;BME280;72005;50.496;15.798;2024-03-06T09:42:49;95994.44;;;8.48;73.82
82375;BME280;72005;50.496;15.798;2024-03-06T09:45:15;95989.34;;;8.42;71.10
82375;BME280;72005;50.496;15.798;2024-03-06T09:47:42;95991.28;;;8.23;72.54
82375;BME280;72005;50.496;15.798;2024-03-06T09:50:09;95992.19;;;8.17;71.08
82375;BME280;72005;50.496;15.798;2024-03-06T09:52:36;96010.97;;;7.66;72.27
82375;BME280;72005;50.496;15.798;2024-03-06T09:55:02;96003.25;;;7.72;72.40
82375;BME280;72005;50.496;15.798;2024-03-06T09:57:30;96005.25;;;7.46;73.95
82375;BME280;72005;50.496;15.798;2024-03-06T09:59:56;96004.09;;;7.54;73.68
82375;BME280;72005;50.496;15.798;2024-03-06T10:02:37;95998.88;;;7.54;72.63
82375;BME280;72005;50.496;15.798;2024-03-06T10:05:04;96004.16;;;7.65;74.71
82375;BME280;72005;50.496;15.798;2024-03-06T10:07:31;96004.59;;;7.62;72.93
82375;BME280;72005;50.496;15.798;2024-03-06T10:09:56;95996.19;;;7.60;73.04
82375;BME280;72005;50.496;15.798;2024-03-06T10:12:22;95998.13;;;7.77;74.45
82375;BME280;72005;50.496;15.798;2024-03-06T10:14:51;96000.84;;;7.82;73.65
82375;BME280;72005;50.496;15.798;2024-03-06T10:17:21;96008.69;;;7.94;72.80
82375;BME280;72005;50.496;15.798;2024-03-06T10:19:52;96007.69;;;7.71;71.90
82375;BME280;72005;50.496;15.798;2024-03-06T10:22:19;96013.56;;;7.66;71.63
82375;BME280;72005;50.496;15.798;2024-03-06T10:24:45;96008.53;;;7.53;72.83
82375;BME280;72005;50.496;15.798;2024-03-06T10:27:17;96007.88;;;7.46;72.81
82375;BME280;72005;50.496;15.798;2024-03-06T10:29:43;96005.25;;;7.46;72.62
82375;BME280;72005;50.496;15.798;2024-03-06T10:32:08;96008.88;;;7.45;71.83
82375;BME280;72005;50.496;15.798;2024-03-06T10:34:34;96012.03;;;7.35;71.45
82375;BME280;72005;50.496;15.798;2024-03-06T10:37:03;96021.25;;;7.38;70.93
82375;BME280;72005;50.496;15.798;2024-03-06T10:39:30;96020.53;;;7.31;71.61
82375;BME280;72005;50.496;15.798;2024-03-06T10:42:01;96007.69;;;7.17;71.36
82375;BME280;72005;50.496;15.798;2024-03-06T10:44:27;96006.47;;;7.32;72.40
82375;BME280;72005;50.496;15.798;2024-03-06T10:47:05;96010.75;;;7.14;70.41
82375;BME280;72005;50.496;15.798;2024-03-06T10:49:32;96016.22;;;6.94;70.82
82375;BME280;72005;50.496;15.798;2024-03-06T10:52:03;96018.59;;;6.96;72.43
82375;BME280;72005;50.496;15.798;2024-03-06T10:54:33;96017.81;;;6.95;72.86
82375;BME280;72005;50.496;15.798;2024-03-06T10:57:01;96018.16;;;6.99;72.48
82375;BME280;72005;50.496;15.798;2024-03-06T10:59:28;96011.63;;;7.08;70.99
82375;BME280;72005;50.496;15.798;2024-03-06T11:01:58;96019.34;;;7.03;71.46
82375;BME280;72005;50.496;15.798;2024-03-06T11:04:31;96015.41;;;6.82;72.11
82375;BME280;72005;50.496;15.798;2024-03-06T11:07:01;96002.78;;;6.79;72.11
82375;BME280;72005;50.496;15.798;2024-03-06T11:09:37;96016.63;;;6.80;72.47
82375;BME280;72005;50.496;15.798;2024-03-06T11:12:06;96005.00;;;6.75;71.15
82375;BME280;72005;50.496;15.798;2024-03-06T11:14:38;96004.03;;;6.76;71.85
82375;BME280;72005;50.496;15.798;2024-03-06T11:17:08;96004.56;;;6.97;71.32
82375;BME280;72005;50.496;15.798;2024-03-06T11:28:24;95999.25;;;7.57;73.25
82375;BME280;72005;50.496;15.798;2024-03-06T11:33:19;95998.00;;;7.60;66.87
82375;BME280;72005;50.496;15.798;2024-03-06T11:36:16;96001.16;;;7.62;68.81
82375;BME280;72005;50.496;15.798;2024-03-06T11:39:07;96001.63;;;7.59;67.49
82375;BME280;72005;50.496;15.798;2024-03-06T11:41:49;95991.47;;;7.39;68.67
82375;BME280;72005;50.496;15.798;2024-03-06T11:44:20;95997.16;;;7.36;69.75
82375;BME280;72005;50.496;15.798;2024-03-06T11:47:07;95992.53;;;7.50;68.28
82375;BME280;72005;50.496;15.798;2024-03-06T11:49:34;95975.03;;;7.50;69.73
82375;BME280;72005;50.496;15.798;2024-03-06T11:52:02;95979.00;;;7.64;70.63
82375;BME280;72005;50.496;15.798;2024-03-06T11:54:30;95988.56;;;7.71;67.82
82375;BME280;72005;50.496;15.798;2024-03-06T11:56:58;95978.94;;;7.71;68.74
82375;BME280;72005;50.496;15.798;2024-03-06T11:59:32;95978.56;;;7.56;66.06
82375;BME280;72005;50.496;15.798;2024-03-06T12:02:00;95981.75;;;7.69;68.26
82375;BME280;72005;50.496;15.798;2024-03-06T12:04:30;95978.09;;;7.71;67.93
82375;BME280;72005;50.496;15.798;2024-03-06T12:06:58;95974.47;;;7.72;67.71
82375;BME280;72005;50.496;15.798;2024-03-06T12:09:35;95982.72;;;7.33;66.33
82375;BME280;72005;50.496;15.798;2024-03-06T12:12:01;95984.84;;;7.24;68.08
82375;BME280;72005;50.496;15.798;2024-03-06T12:14:29;95975.81;;;7.39;67.88
82375;BME280;72005;50.496;15.798;2024-03-06T12:16:59;95986.66;;;7.12;68.67
82375;BME280;72005;50.496;15.798;2024-03-06T12:19:31;95979.84;;;7.11;68.32
82375;BME280;72005;50.496;15.798;2024-03-06T12:21:59;95973.69;;;7.06;68.60
82375;BME280;72005;50.496;15.798;2024-03-06T12:24:25;95982.16;;;7.19;68.32
82375;BME280;72005;50.496;15.798;2024-03-06T12:27:01;95976.16;;;7.00;66.43
82375;BME280;72005;50.496;15.798;2024-03-06T12:29:28;95966.81;;;6.93;66.46
82375;BME280;72005;50.496;15.798;2024-03-06T12:31:55;95975.09;;;6.90;66.04
82375;BME280;72005;50.496;15.798;2024-03-06T12:34:22;95975.09;;;6.90;65.61
82375;BME280;72005;50.496;15.798;2024-03-06T12:36:48;95968.16;;;6.84;67.36
82375;BME280;72005;50.496;15.798;2024-03-06T12:39:17;95975.38;;;7.00;66.83
82375;BME280;72005;50.496;15.798;2024-03-06T12:41:47;95972.28;;;6.91;66.47
82375;BME280;72005;50.496;15.798;2024-03-06T12:44:13;95972.44;;;6.96;67.60
82375;BME280;72005;50.496;15.798;2024-03-06T12:46:38;95979.06;;;7.11;67.92
82375;BME280;72005;50.496;15.798;2024-03-06T12:49:04;95986.06;;;7.10;65.65
82375;BME280;72005;50.496;15.798;2024-03-06T12:51:30;95976.81;;;6.96;66.03
82375;BME280;72005;50.496;15.798;2024-03-06T12:53:55;95983.84;;;6.84;64.94
82375;BME280;72005;50.496;15.798;2024-03-06T12:56:21;95982.94;;;6.90;65.36
82375;BME280;72005;50.496;15.798;2024-03-06T12:58:47;95974.47;;;6.76;66.90
82375;BME280;72005;50.496;15.798;2024-03-06T13:01:12;95973.84;;;6.81;66.94
82375;BME280;72005;50.496;15.798;2024-03-06T13:03:38;95981.00;;;6.85;65.48
82375;BME280;72005;50.496;15.798;2024-03-06T13:06:04;95973.38;;;6.84;60.42
82375;BME280;72005;50.496;15.798;2024-03-06T13:08:31;95973.28;;;6.90;60.50